Weather observations for the past three days for
Bryan Coulter Field
Metric (Imperial)
Date Time (cdt) Wind (kph) Vis. (km) Weather Sky Cond. Temperature (ºC) Relative Humidity Wind Chill (°C) Heat Index (°C) Pressure Precipitation (cm)
Air Dwpt 6 hour altimeter (cm) sea level (mb) 1 hr 3 hr 6 hr
Max. Min.
04 02:15 S 13 16.09 Fair CLR 17.5 11.5 68% 76.33 0.0
04 01:55 S 13 16.09 Fair CLR 17.6 11.4 67% 76.35 0.0
04 01:35 S 13 16.09 Fair CLR 18 11.5 66% 76.38 0.0
04 01:15 S 11 16.09 Fair CLR 18.1 11.5 66% 76.38 0.0
04 00:55 S 13 16.09 Fair CLR 18.5 11.5 24.5 18.3 64% 76.38 0.0
04 00:35 S 15 16.09 Fair CLR 18.7 11.2 62% 76.4 0.0
04 00:15 S 15 16.09 Fair CLR 18.7 11.2 62% 76.38 0.0
03 23:55 S 17 G 31 16.09 Fair CLR 19.2 11.1 60% 76.4 0.0
03 23:35 S 17 G 26 16.09 Fair CLR 19.5 11 58% 76.43 0.0
03 23:15 S 20 G 26 16.09 Fair CLR 19.8 10.7 56% 76.43 0.0
03 22:55 S 17 16.09 Fair CLR 19.6 9.9 54% 76.43 0.0
03 22:35 S 9 16.09 Fair CLR 19.1 9.9 55% 76.4 0.0
03 22:15 S 7 16.09 Fair CLR 19.5 10 54% 76.4 0.0
03 21:55 S 7 16.09 Fair CLR 20 9.8 52% 76.4 0.0
03 21:35 S 6 16.09 Fair CLR 19.1 10.1 56% 76.38 0.0
03 21:15 S 6 16.09 Fair CLR 20.4 10 51% 76.38 0.0
03 20:55 S 7 16.09 Fair CLR 20.5 10.2 52% 76.38 0.0
03 20:35 S 6 16.09 Fair CLR 21 10 50% 76.35 0.0
03 20:15 S 7 16.09 Fair CLR 21.5 9.9 48% 76.35 0.0
03 19:55 S 9 16.09 Fair CLR 22.1 9.9 46% 76.35 0.0
03 19:35 S 7 16.09 Fair CLR 22.8 9.7 43% 76.35 0.0
03 19:15 S 13 16.09 Fair CLR 23.8 9.5 40% 76.38 0.0
03 18:55 S 13 16.09 Fair CLR 24.6 9.4 26.2 24.4 38% 25 76.38 0.0
03 18:35 S 15 16.09 Fair CLR 25 8.7 36% 26 76.4 0.0
03 18:15 S 15 16.09 Fair CLR 25.5 10 38% 26 76.4 0.0
03 17:55 S 19 16.09 Partly Cloudy SCT070 25.2 9.4 37% 26 76.4 0.0
03 17:35 S 15 16.09 Fair CLR 25.4 10.2 38% 26 76.4 0.0
03 17:15 S 11 16.09 Fair CLR 24.7 10 40% 26 76.43 0.0
03 16:55 S 11 16.09 Fair CLR 25.6 10.7 39% 26 76.45 0.0
03 16:35 SE 19 16.09 Fair CLR 24.6 9.8 39% 25 76.45 0.0
03 16:15 S 13 16.09 Partly Cloudy SCT070 26.2 10.5 37% 26 76.5 0.0
03 15:55 Calm 16.09 Partly Cloudy SCT070 25.5 10.3 38% 26 76.53 0.0
03 15:35 SE 15 16.09 Fair CLR 25.8 10.4 38% 26 76.56 0.0
03 15:15 SE 11 16.09 Partly Cloudy SCT070 25.7 9.4 36% 26 76.56 0.0
03 14:55 S 7 G 26 16.09 Partly Cloudy SCT070 25.4 9.6 37% 26 76.58 0.0
03 14:35 Calm 16.09 Partly Cloudy SCT065 25.7 9.1 35% 26 76.63 0.0
03 14:15 SW 6 16.09 Partly Cloudy SCT065 25.1 9.1 36% 26 76.63 0.0
03 13:55 SE 11 16.09 Fair CLR 25.5 9.1 35% 26 76.66 0.0
03 13:35 S 11 16.09 Fair CLR 25 8.9 36% 26 76.68 0.0
03 13:15 S 13 16.09 Fair CLR 24.9 9.9 39% 26 76.71 0.0
03 12:55 S 6 16.09 Fair CLR 24.4 10.5 24.7 11.2 42% 25 76.73 0.0
03 12:35 S 11 16.09 Fair CLR 24.1 10.8 43% 25 76.76 0.0
03 12:15 SW 6 16.09 Fair CLR 23.7 10.5 43% 76.78 0.0
03 11:55 SW 11 16.09 Fair CLR 23.5 10.3 43% 76.81 0.0
03 11:35 SW 13 16.09 Fair CLR 23.4 11.5 47% 76.81 0.0
03 11:15 SW 11 16.09 Fair CLR 22.9 10.7 46% 76.81 0.0
03 10:55 SW 11 16.09 Fair CLR 22.5 10.8 48% 76.81 0.0
03 10:35 SW 9 16.09 Fair CLR 22.3 11.8 52% 76.81 0.0
03 10:15 S 13 16.09 Fair CLR 21.8 11.3 51% 76.81 0.0
03 09:55 SW 9 16.09 Fair CLR 21 11.2 54% 76.78 0.0
03 09:35 SW 7 16.09 Fair CLR 20.4 12 59% 76.78 0.0
03 09:15 Calm 16.09 Fair CLR 19.3 11.7 62% 76.78 0.0
03 08:55 Calm 16.09 Fair CLR 18.4 12.4 68% 76.78 0.0
03 08:35 SW 6 16.09 Fair CLR 17 11.6 71% 76.76 0.0
03 08:15 Calm 16.09 Fair CLR 15.6 11.9 79% 76.76 0.0
03 07:55 Calm 16.09 Fair CLR 15 11.4 79% 76.76 0.0
03 07:35 Calm 16.09 Fair CLR 13.5 11 85% 76.71 0.0
03 07:15 Calm 16.09 Fair CLR 12.6 10.2 85% 76.68 0.0
03 06:55 S 6 16.09 Fair CLR 12 9.7 13.6 11.1 86% 76.68 0.0
03 06:35 SW 6 16.09 Fair CLR 12.4 10 85% 76.66 0.0
03 06:15 SW 9 16.09 Fair CLR 12 10 88% 76.66 0.0
03 05:55 S 6 16.09 Fair CLR 11.5 10.2 92% 76.63 0.0
03 05:35 Calm 16.09 Fair CLR 11.3 9.3 88% 76.63 0.0
03 05:15 Calm 16.09 Fair CLR 13.1 9.7 80% 76.63 0.0
03 04:55 SW 6 16.09 Fair CLR 12.2 10 87% 76.63 0.0
03 04:35 S 6 16.09 Fair CLR 12.3 9.8 85% 76.63 0.0
03 04:15 S 7 16.09 Fair CLR 12.1 10.4 89% 76.63 0.0
03 03:55 Calm 16.09 Fair CLR 12.4 10.2 87% 76.61 0.0
03 03:35 Calm 16.09 Fair CLR 13 10.5 85% 76.61 0.0
03 03:15 Calm 16.09 Fair CLR 12.1 11.2 94% 76.63 0.0
03 02:55 Calm 16.09 Fair CLR 12.2 11.2 94% 76.63 0.0
03 02:35 Calm 16.09 Fair CLR 12.5 11.4 93% 76.63 0.0
03 02:15 Calm 16.09 Fair CLR 12.3 11 92% 76.66 0.0
03 01:55 Calm 16.09 Fair CLR 13.5 11.2 86% 76.66 0.0
03 01:35 Calm 16.09 Fair CLR 13.1 11.6 91% 76.66 0.0
03 01:15 Calm 16.09 Fair CLR 13.5 11.5 88% 76.68 0.0
03 00:55 Calm 16.09 Fair CLR 13.4 11.5 22.9 13.3 88% 76.68 0.0
03 00:35 Calm 16.09 Fair CLR 13.5 11.6 88% 76.66 0.0
03 00:15 Calm 16.09 Fair CLR 15.7 10.9 73% 76.66 0.0
02 23:55 Calm 16.09 Fair CLR 14.6 11.3 81% 76.66 0.0
02 23:35 Calm 16.09 Fair CLR 13.8 11.7 87% 76.66 0.0
02 23:15 Calm 16.09 Fair CLR 15.1 10.7 75% 76.66 0.0
02 22:55 Calm 16.09 Fair CLR 14.5 11.5 82% 76.63 0.0
02 22:35 Calm 16.09 Fair CLR 17.6 9.4 59% 76.63 0.0
02 22:15 Calm 16.09 Fair CLR 15.7 12.1 79% 76.61 0.0
02 21:55 Calm 16.09 Fair CLR 15.8 11.3 75% 76.61 0.0
02 21:35 Calm 16.09 Fair CLR 16.9 10.3 65% 76.61 0.0
02 21:15 Calm 16.09 Fair CLR 19.3 8.8 51% 76.58 0.0
02 20:55 Calm 16.09 Fair CLR 18.7 8.7 52% 76.56 0.0
02 20:35 Calm 16.09 Fair CLR 20.2 8 46% 76.56 0.0
02 20:15 N 6 16.09 Fair CLR 20.7 7.8 44% 76.53 0.0
02 19:55 N 7 16.09 Fair CLR 20.9 8.5 45% 76.5 0.0
02 19:35 N 6 16.09 Fair CLR 21.5 8.8 44% 76.5 0.0
02 19:15 N 9 16.09 Fair CLR 22.5 7.8 39% 76.5 0.0
02 18:55 N 9 16.09 Fair CLR 23.1 7.9 24.1 20.9 38% 76.5 0.0
02 18:35 N 11 16.09 Fair CLR 23.5 8.5 38% 76.48 0.0
02 18:15 NE 11 16.09 Fair CLR 23.7 9.1 40% 76.48 0.0
02 17:55 NE 13 16.09 Partly Cloudy SCT065 24 9.1 39% 25 76.48 0.0
02 17:35 N 17 16.09 Partly Cloudy SCT065 SCT075 23.9 9.2 39% 25 76.5 0.0
02 17:15 N 11 16.09 Partly Cloudy SCT065 23.5 9.8 42% 76.5 0.0
02 16:55 N 13 16.09 Partly Cloudy SCT065 23.8 10.2 42% 76.5 0.0
02 16:35 NE 7 16.09 Partly Cloudy SCT065 23.5 9.9 42% 76.53 0.0
02 16:15 N 9 16.09 Partly Cloudy SCT065 23.6 9.6 41% 76.53 0.0
02 15:55 Calm 16.09 Fair CLR 23.2 9.9 43% 76.56 0.0
02 15:35 NE 7 16.09 Fair CLR 23.2 10.2 44% 76.56 0.0
02 15:15 N 11 16.09 Fair CLR 23.1 10.2 44% 76.56 0.0
02 14:55 NE 11 16.09 Fair CLR 22.8 10.2 45% 76.58 0.0
02 14:35 NE 13 16.09 Fair CLR 22.6 10.5 46% 76.58 0.0
02 14:15 E 13 16.09 Partly Cloudy SCT049 22.3 10.6 48% 76.61 0.0
02 13:55 N 15 G 30 16.09 Partly Cloudy SCT002 SCT047 22.3 10.8 48% 76.63 0.0
02 13:35 N 13 G 26 16.09 Partly Cloudy SCT047 21.9 11.1 50% 76.66 0.0
02 13:15 NW 15 16.09 Partly Cloudy SCT045 SCT050 21.6 11.4 52% 76.68 0.0
02 12:55 N 15 16.09 Partly Cloudy SCT043 21.3 11.4 21.3 10 53% 76.68 0.0
02 12:35 NE 17 G 26 16.09 Fair CLR 21 11.4 54% 76.68 0.0
02 12:15 N 11 G 19 16.09 Fair CLR 20.4 11.2 56% 76.71 0.0
02 11:55 N 13 16.09 Fair CLR 20.1 11 56% 76.71 0.0
02 11:35 N 11 16.09 Fair CLR 19.9 11 57% 76.71 0.0
02 11:15 N 17 16.09 Fair CLR 19.6 11 58% 76.73 0.0
02 10:55 N 15 16.09 Fair CLR 19 11.2 61% 76.73 0.0
02 10:35 N 13 16.09 Fair CLR 18.4 11.5 64% 76.73 0.0
02 10:15 Calm 16.09 Fair CLR 17.8 11.4 66% 76.71 0.0
02 09:55 N 9 16.09 Fair CLR 17.1 11.5 70% 76.71 0.0
02 09:35 N 11 16.09 Fair CLR 16.1 11.3 73% 76.71 0.0
02 09:15 N 11 16.09 Fair CLR 15.4 11.3 77% 76.68 0.0
02 08:55 N 13 16.09 Fair CLR 14.5 11.1 80% 76.68 0.0
02 08:35 N 11 16.09 Fair CLR 13.7 11 84% 76.66 0.0
02 08:15 NW 7 16.09 Fair CLR 12.6 10.6 88% 76.63 0.0
02 07:55 NW 9 16.09 Fair CLR 11.7 10.4 92% 76.61 0.0
02 07:35 NW 7 16.09 Fair CLR 10.8 9.7 93% 76.58 0.0
02 07:15 N 6 16.09 Fair CLR 10.4 9.5 94% 76.56 0.0
02 06:55 Calm 16.09 Fair CLR 10 9.1 12.1 9.8 94% 76.53 0.0 0.03 0.18
02 06:35 Calm 16.09 Fair CLR 10.2 9.2 94% 76.5 0.0
02 06:15 N 6 16.09 Fair CLR 10 9.2 95% 76.5 0.0
02 05:55 N 7 16.09 Fair CLR 10 9.2 95% 9 76.48 0.0 0.03
02 05:35 N 6 16.09 Fair CLR 9.8 9.1 95% 76.45 0.0 0.03
02 05:15 N 6 16.09 Fair CLR 10 9.2 95% 76.45 0.0
02 04:55 N 7 16.09 Fair CLR 10.2 9.3 94% 76.45 0.0 0.03
02 04:35 N 7 16.09 Fair CLR 10.4 9.5 94% 76.45 0.0 0.03
02 04:15 N 9 16.09 Fair CLR 10.5 9.6 94% 76.43 0.0
02 03:55 N 11 16.09 Fair CLR 10.5 9.6 94% 76.4 0.0 0.03 0.1
02 03:35 N 9 16.09 Fair CLR 10.5 9.6 94% 76.38 0.0
02 03:15 N 11 16.09 Fair CLR 10.5 9.6 94% 76.38 0.0
02 02:55 N 11 16.09 Fair CLR 10.5 9.6 94% 76.38 0.0 0.03
02 02:35 N 7 16.09 Fair CLR 10.6 9.6 94% 76.38 0.0 0.03
02 02:15 N 9 16.09 Fair CLR 10.8 9.6 92% 76.38 0.0
02 01:55 NW 9 16.09 Fair CLR 11 9.5 91% 76.4 0.0 0.05
02 01:35 N 6 16.09 Fair CLR 11.1 9.5 90% 76.4 0.0 0.03
02 01:15 N 7 16.09 Partly Cloudy SCT055 11.5 9.6 88% 76.4 0.0 0.03
02 00:55 NE 6 16.09 Overcast OVC055 12.1 10 13 11.5 87% 76.38 0.0 0.05 0.48
02 00:35 NE 7 16.09 Overcast OVC049 12.1 10.1 88% 76.38 0.0 0.03
02 00:15 N 7 16.09 Overcast OVC047 12 10 88% 76.38 0.0 0.03
01 23:55 N 9 16.09 Overcast SCT037 OVC045 12 9.7 86% 76.4 0.0 0.08
01 23:35 NE 13 16.09 Overcast OVC033 12 9.6 85% 76.38 0.0 0.05
01 23:15 NE 19 16.09 Overcast OVC031 12 9.3 84% 76.38 0.0 0.03
01 22:55 NE 19 G 30 16.09 Overcast OVC029 11.8 9.4 85% 76.38 0.0 0.08
01 22:35 NE 19 G 28 16.09 Overcast OVC029 11.6 9.6 88% 76.38 0.0 0.05
01 22:15 NE 15 G 28 16.09 Overcast OVC029 11.5 9.9 90% 76.38 0.0 0.03
01 21:55 NE 19 16.09 Overcast SCT012 BKN027 OVC100 11.5 10.1 91% 76.35 0.0 0.08 0.28
01 21:35 NE 19 G 30 16.09 Overcast OVC012 11.7 10.6 93% 76.3 0.0 0.05
01 21:15 N 20 G 26 16.09 Overcast OVC010 12 11.2 95% 76.28 0.0 0.03
01 20:55 N 20 G 28 16.09 Light Drizzle BKN010 OVC016 12 11 94% 76.23 0.0 0.1
01 20:35 N 22 G 33 16.09 Light Drizzle BKN010 OVC016 12 11.1 94% 76.17 0.0 0.05
01 20:15 N 20 G 30 16.09 Overcast OVC010 12.3 11.5 95% 76.2 0.0 0.03
01 19:55 N 13 16.09 Overcast BKN007 OVC010 12.6 12.1 97% 76.2 0.0 0.1
01 19:35 NE 11 16.09 Light Drizzle BKN007 BKN024 OVC065 12.6 12 96% 76.17 0.0 0.05
01 19:15 NE 24 G 33 16.09 Drizzle SCT009 BKN022 OVC065 12.6 11.9 96% 76.17 0.0 0.03
01 18:55 N 15 16.09 Drizzle BKN009 OVC015 12.8 12.1 15.4 12.8 96% 76.17 0.0 0.1 0.79
01 18:35 N 22 G 28 11.27 Rain SCT009 OVC013 13 12 94% 76.15 0.0 0.08
01 18:15 N 22 G 28 16.09 Rain SCT008 OVC013 13 12 94% 76.12 0.0 0.03
01 17:55 N 17 16.09 Light Rain BKN007 OVC013 13.4 12.6 95% 76.1 0.0 0.13
01 17:35 N 19 G 28 11.27 Rain BKN008 OVC013 14 13.2 95% 76.02 0.0 0.08
01 17:15 N 17 16.09 Light Rain OVC008 14.3 13.5 95% 76.02 0.0 0.05
01 16:55 NE 15 G 35 16.09 Light Rain OVC008 14.5 13.7 95% 75.95 0.0 0.13
01 16:35 NE 19 G 37 16.09 Light Rain OVC008 14.6 14 96% 75.87 0.0 0.08
01 16:15 NE 20 16.09 Light Rain BKN008 OVC015 14.7 14.1 96% 75.95 0.0 0.05
01 15:55 N 19 G 28 6.44 Rain BKN008 OVC015 14.7 13.8 94% 76.02 0.0 0.13 0.43
01 15:35 NE 11 G 30 16.09 Light Rain OVC006 14.6 13.9 96% 75.97 0.0 0.08
01 15:15 NE 20 G 35 16.09 Thunderstorm Light Drizzle in Vicinity OVC006 14.8 14.2 96% 75.9 0.0 0.05
01 14:55 N 20 G 28 16.09 Thunderstorm Light Rain in Vicinity OVC006 14.7 14.2 97% 76 0.0 0.15
01 14:35 N 19 11.27 Rain OVC008 14.6 13.9 96% 76.05 0.0 0.1
01 14:15 N 17 11.27 Rain OVC008 15 14 94% 76 0.0 0.05
01 13:55 N 13 16.09 Overcast OVC006 15 13.9 93% 76 0.0 0.15
01 13:35 NE 17 G 33 16.09 Overcast OVC006 15.1 14.2 94% 75.9 0.0 0.1
01 13:15 NE 20 G 28 16.09 Overcast OVC006 15.4 14.9 97% 75.87 0.0 0.05
01 12:55 NE 19 G 31 16.09 Light Rain OVC004 14.7 14.2 15.5 14.3 97% 75.9 0.0 0.18 1.22
01 12:35 NE 26 G 41 11.27 Light Rain OVC006 14.5 14 97% 75.82 0.0 0.13
01 12:15 E 15 16.09 Light Rain OVC006 14.5 13.8 96% 76.05 0.0 0.05
01 11:55 E 20 16.09 Light Rain OVC006 14.5 13.8 96% 76.1 0.0 0.2
01 11:35 NE 22 G 30 16.09 Light Rain OVC006 14.3 13.7 96% 76.1 0.0 0.13
01 11:15 NE 22 G 31 16.09 Overcast OVC004 14.5 14 97% 76.05 0.0 0.05
01 10:55 NE 19 G 28 16.09 Light Rain OVC004 14.6 14.2 97% 76.07 0.0 0.2
01 10:35 NE 11 11.27 Rain SCT004 OVC008 14.8 14.4 97% 76.15 0.0 0.13
01 10:15 N 15 11.27 Rain OVC008 14.7 14.3 97% 76.2 0.0 0.05
01 09:55 N 13 16.09 Light Rain OVC006 14.5 14.2 98% 76.2 0.0 0.2 0.64
01 09:35 NE 13 16.09 Light Rain OVC004 14.5 14.1 97% 76.1 0.0 0.15
01 09:15 NE 19 6.44 Rain OVC004 14.5 14.2 98% 76.05 0.0 0.08
01 08:55 NE 9 11.27 Rain OVC006 14.7 14.3 97% 76.12 0.0 0.2
01 08:35 NE 15 G 26 16.09 Rain OVC006 14.7 14.4 98% 76.07 0.0 0.13
01 08:15 NE 15 11.27 Rain OVC004 14.8 14.5 98% 76.05 0.0 0.05
01 07:55 NE 17 11.27 Rain BKN004 OVC010 15 14.6 97% 76 0.0 0.23
01 07:35 NE 17 11.27 Rain BKN006 OVC012 15 14.7 98% 76.1 0.0 0.15
01 07:15 NE 11 11.27 Rain OVC004 15.4 15 97% 76.12 0.0 0.08
01 06:55 NE 9 11.27 Rain OVC006 15.5 15.2 17 15.5 98% 76.12 0.0 0.2 0.99
01 06:35 N 7 11.27 Rain OVC004 15.5 15.2 98% 76.1 0.0 0.13
01 06:15 NE 7 11.27 Rain OVC004 15.5 15.2 98% 76 0.0 0.05
01 05:55 N 13 16.09 Light Rain OVC004 15.5 15.2 98% 76 0.0 0.18
01 05:35 NE 13 16.09 Light Rain OVC004 15.5 15.2 98% 76 0.0 0.13
01 05:15 NE 17 11.27 Rain OVC006 15.5 15.2 98% 75.9 0.0 0.05
01 04:55 N 11 11.27 Light Rain OVC006 15.6 15.3 98% 76.05 0.0 0.2
01 04:35 N 13 16.09 Light Rain OVC004 15.6 15.3 98% 76.07 0.0 0.15
01 04:15 NE 13 11.27 Light Rain OVC004 15.7 15.5 99% 76 0.0 0.05
01 03:55 N 11 11.27 Rain OVC006 16.1 15.8 98% 76.05 0.0 0.25 0.38
01 03:35 N 13 11.27 Light Rain BKN006 OVC011 16.2 16 99% 76.02 0.0 0.18
01 03:15 NE 13 11.27 Light Rain OVC008 16.3 16 98% 75.97 0.0 0.1
01 02:55 Calm 16.09 Thunderstorm Light Rain in Vicinity BKN006 OVC010 16.5 16 97% 76.12 0.0 0.13
Date Time (cdt) Wind (kph) Vis. (km) Weather Sky Cond. Air Dwpt Max. Min. Relative Humidity Wind Chill (°C) Heat Index (°C) altimeter (cm) sea level (mb) 1 hr 3 hr 6 hr
6 hour
Temperature (ºC) Pressure Precipitation (cm)